CBG weather

Cambridge Airport
Cambridge, England, United Kingdom

Public forecast

Using degrees Celsius for public forecast. Weather courtesy of forecast.io.

Current aviation weather report (METAR) for Cambridge Airport

Report is more than 6 hours old.

Retrieved 2019/10/18 16:50 UTC (11 hours ago):

EGSC 181650Z 20006KT 9999 FEW018 09/07 Q0999

Closest aviation forecast (TAF) to Cambridge Airport

Closest forecast is RAF Mildenhall, 14.8 nm (27.4 km) NE. Retrieved 2019-10-19 04:06 UTC (0 seconds ago):

TAF EGUN 190400Z 1904/2010 20009KT 9999 SCT020 QNH2944INS BECMG 1908/1909 24010G20KT 9999 BKN015 QNH2948INS BECMG 1913/1914 24010G15KT 9999 BKN030 QNH2949INS TEMPO 1915/1918 9000 -SHRA BECMG 1917/1918 24012KT 9999 SCT030 QNH2956INS BECMG 2000/2001 26006KT 8000 BR BKN010 QNH2966INS TX14/1914Z TN09/1907Z